TimeEST,TemperatureF,Dew PointF,Humidity,Sea Level PressureIn,VisibilityMPH,Wind Direction,Wind SpeedMPH,Gust SpeedMPH,PrecipitationIn,Events,Conditions,WindDirDegrees,DateUTC
12:53 AM,64.0,61.0,90,30.09,10.0,ENE,4.6,-,N/A,,Partly Cloudy,60,2011-11-27 05:53:00
1:53 AM,63.0,61.0,93,30.07,10.0,ENE,4.6,-,N/A,,Clear,70,2011-11-27 06:53:00
2:53 AM,63.0,61.0,93,30.06,10.0,ENE,8.1,-,N/A,,Clear,60,2011-11-27 07:53:00
3:53 AM,63.0,60.1,90,30.05,10.0,ENE,6.9,-,N/A,,Clear,60,2011-11-27 08:53:00
4:53 AM,62.6,60.8,94,30.04,10.0,ENE,6.9,-,N/A,,Clear,70,2011-11-27 09:53:00
5:53 AM,61.0,59.0,93,30.04,10.0,ENE,5.8,-,N/A,,Clear,60,2011-11-27 10:53:00
6:53 AM,61.0,57.9,90,30.05,10.0,ENE,5.8,-,N/A,,Clear,60,2011-11-27 11:53:00
7:53 AM,64.9,60.1,84,30.06,10.0,East,8.1,-,N/A,,Clear,80,2011-11-27 12:53:00
8:53 AM,72.0,59.0,64,30.07,10.0,East,8.1,-,N/A,,Clear,100,2011-11-27 13:53:00
9:53 AM,77.0,57.2,50,30.08,10.0,East,9.2,-,N/A,,Clear,100,2011-11-27 14:53:00
10:53 AM,80.1,57.9,47,30.06,10.0,East,11.5,-,N/A,,Clear,100,2011-11-27 15:53:00
11:53 AM,81.0,57.9,45,30.04,10.0,ESE,13.8,20.7,N/A,,Clear,110,2011-11-27 16:53:00
12:53 PM,81.0,59.0,47,30.01,10.0,SE,12.7,19.6,N/A,,Partly Cloudy,130,2011-11-27 17:53:00
1:53 PM,82.0,59.0,45,29.99,10.0,SE,15.0,20.7,N/A,,Partly Cloudy,130,2011-11-27 18:53:00
2:53 PM,82.0,59.0,45,29.97,10.0,SE,11.5,-,N/A,,Partly Cloudy,140,2011-11-27 19:53:00
3:53 PM,80.1,59.0,48,29.96,10.0,ESE,9.2,-,N/A,,Partly Cloudy,110,2011-11-27 20:53:00
4:53 PM,79.0,57.9,48,29.96,10.0,ESE,9.2,-,N/A,,Partly Cloudy,110,2011-11-27 21:53:00
5:53 PM,75.9,60.1,58,29.96,10.0,East,5.8,-,N/A,,Clear,100,2011-11-27 22:53:00
6:53 PM,73.9,61.0,64,29.98,10.0,ESE,5.8,-,N/A,,Clear,110,2011-11-27 23:53:00
7:53 PM,71.1,61.0,70,29.99,10.0,ESE,4.6,-,N/A,,Clear,120,2011-11-28 00:53:00
8:53 PM,70.0,62.1,76,30.00,10.0,ESE,5.8,-,N/A,,Clear,120,2011-11-28 01:53:00
9:53 PM,69.1,63.0,81,30.00,10.0,ESE,3.5,-,N/A,,Clear,110,2011-11-28 02:53:00
10:53 PM,66.9,63.0,87,29.99,10.0,Calm,Calm,-,N/A,,Clear,0,2011-11-28 03:53:00
11:53 PM,66.0,63.0,90,29.98,10.0,East,3.5,-,N/A,,Clear,90,2011-11-28 04:53:00